sensor_id;sensor_type;location;lat;lon;timestamp;pressure;altitude;pressure_sealevel;temperature;humidity
79006;BME280;69202;45.498;-73.582;2024-01-07T00:02:03;101363.19;;;-4.58;52.95
79006;BME280;69202;45.498;-73.582;2024-01-07T00:04:29;101360.47;;;-4.57;53.43
79006;BME280;69202;45.498;-73.582;2024-01-07T00:06:55;101348.28;;;-4.59;53.60
79006;BME280;69202;45.498;-73.582;2024-01-07T00:09:21;101335.78;;;-4.56;53.73
79006;BME280;69202;45.498;-73.582;2024-01-07T00:11:47;101345.28;;;-4.53;53.92
79006;BME280;69202;45.498;-73.582;2024-01-07T00:14:15;101349.44;;;-4.49;53.76
79006;BME280;69202;45.498;-73.582;2024-01-07T00:16:41;101335.31;;;-4.48;53.40
79006;BME280;69202;45.498;-73.582;2024-01-07T00:19:07;101347.31;;;-4.43;53.51
79006;BME280;69202;45.498;-73.582;2024-01-07T00:21:33;101327.50;;;-4.50;53.69
79006;BME280;69202;45.498;-73.582;2024-01-07T00:23:59;101326.72;;;-4.52;53.50
79006;BME280;69202;45.498;-73.582;2024-01-07T00:26:25;101324.19;;;-4.53;53.73
79006;BME280;69202;45.498;-73.582;2024-01-07T00:28:51;101320.09;;;-4.59;53.42
79006;BME280;69202;45.498;-73.582;2024-01-07T00:31:16;101314.06;;;-4.61;53.50
79006;BME280;69202;45.498;-73.582;2024-01-07T00:33:42;101297.16;;;-4.73;53.52
79006;BME280;69202;45.498;-73.582;2024-01-07T00:36:08;101301.66;;;-4.75;53.50
79006;BME280;69202;45.498;-73.582;2024-01-07T00:38:34;101304.81;;;-4.84;53.56
79006;BME280;69202;45.498;-73.582;2024-01-07T00:41:00;101294.28;;;-4.84;53.68
79006;BME280;69202;45.498;-73.582;2024-01-07T00:43:27;101281.28;;;-4.87;54.02
79006;BME280;69202;45.498;-73.582;2024-01-07T00:45:54;101275.25;;;-4.89;54.23
79006;BME280;69202;45.498;-73.582;2024-01-07T00:48:20;101285.00;;;-4.91;53.93
79006;BME280;69202;45.498;-73.582;2024-01-07T00:50:46;101275.47;;;-4.94;54.22
79006;BME280;69202;45.498;-73.582;2024-01-07T00:53:12;101247.00;;;-5.03;54.81
79006;BME280;69202;45.498;-73.582;2024-01-07T00:55:38;101281.69;;;-4.79;54.74
79006;BME280;69202;45.498;-73.582;2024-01-07T00:58:04;101276.84;;;-4.86;54.23
79006;BME280;69202;45.498;-73.582;2024-01-07T01:00:30;101257.69;;;-4.90;54.49
79006;BME280;69202;45.498;-73.582;2024-01-07T01:02:56;101254.22;;;-4.90;54.68
79006;BME280;69202;45.498;-73.582;2024-01-07T01:05:22;101256.28;;;-4.96;54.99
79006;BME280;69202;45.498;-73.582;2024-01-07T01:07:48;101241.81;;;-5.04;55.42
79006;BME280;69202;45.498;-73.582;2024-01-07T01:10:14;101237.81;;;-4.96;55.08
79006;BME280;69202;45.498;-73.582;2024-01-07T01:12:43;101240.34;;;-4.94;55.19
79006;BME280;69202;45.498;-73.582;2024-01-07T01:15:09;101230.84;;;-4.97;55.28
79006;BME280;69202;45.498;-73.582;2024-01-07T01:17:35;101233.28;;;-4.94;56.00
79006;BME280;69202;45.498;-73.582;2024-01-07T01:20:02;101237.53;;;-4.91;55.97
79006;BME280;69202;45.498;-73.582;2024-01-07T01:22:28;101207.78;;;-4.93;55.36
79006;BME280;69202;45.498;-73.582;2024-01-07T01:24:54;101229.28;;;-4.85;55.45
79006;BME280;69202;45.498;-73.582;2024-01-07T01:27:21;101214.00;;;-4.94;55.99
79006;BME280;69202;45.498;-73.582;2024-01-07T01:29:47;101198.28;;;-5.11;55.92
79006;BME280;69202;45.498;-73.582;2024-01-07T01:32:13;101211.53;;;-4.97;56.15
79006;BME280;69202;45.498;-73.582;2024-01-07T01:34:42;101206.94;;;-4.94;56.14
79006;BME280;69202;45.498;-73.582;2024-01-07T01:37:08;101203.53;;;-4.96;56.73
79006;BME280;69202;45.498;-73.582;2024-01-07T01:39:35;101176.66;;;-5.02;56.78
79006;BME280;69202;45.498;-73.582;2024-01-07T01:42:01;101184.91;;;-4.93;56.52
79006;BME280;69202;45.498;-73.582;2024-01-07T01:44:26;101182.16;;;-4.91;57.19
79006;BME280;69202;45.498;-73.582;2024-01-07T01:46:58;101174.09;;;-4.88;57.02
79006;BME280;69202;45.498;-73.582;2024-01-07T01:49:27;101175.88;;;-4.88;56.56
79006;BME280;69202;45.498;-73.582;2024-01-07T01:51:53;101151.09;;;-5.00;56.65
79006;BME280;69202;45.498;-73.582;2024-01-07T01:54:20;101145.94;;;-4.87;56.53
79006;BME280;69202;45.498;-73.582;2024-01-07T01:56:48;101149.69;;;-4.91;56.77
79006;BME280;69202;45.498;-73.582;2024-01-07T01:59:14;101131.41;;;-4.95;57.15
79006;BME280;69202;45.498;-73.582;2024-01-07T02:01:41;101103.66;;;-5.16;56.72
79006;BME280;69202;45.498;-73.582;2024-01-07T02:04:08;101093.84;;;-5.28;57.58
79006;BME280;69202;45.498;-73.582;2024-01-07T02:06:35;101094.06;;;-5.17;57.86
79006;BME280;69202;45.498;-73.582;2024-01-07T02:09:02;101105.69;;;-5.05;58.04
79006;BME280;69202;45.498;-73.582;2024-01-07T02:11:28;101106.53;;;-5.05;57.87
79006;BME280;69202;45.498;-73.582;2024-01-07T02:13:55;101108.13;;;-5.02;57.63
79006;BME280;69202;45.498;-73.582;2024-01-07T02:16:21;101106.28;;;-5.00;58.43
79006;BME280;69202;45.498;-73.582;2024-01-07T02:18:49;101098.53;;;-5.03;57.88
79006;BME280;69202;45.498;-73.582;2024-01-07T02:21:15;101083.94;;;-4.95;58.77
79006;BME280;69202;45.498;-73.582;2024-01-07T02:23:42;101076.63;;;-4.89;58.88
79006;BME280;69202;45.498;-73.582;2024-01-07T02:26:07;101079.28;;;-4.89;58.58
79006;BME280;69202;45.498;-73.582;2024-01-07T02:28:34;101092.72;;;-4.94;58.58
79006;BME280;69202;45.498;-73.582;2024-01-07T02:31:00;101088.94;;;-4.90;57.88
79006;BME280;69202;45.498;-73.582;2024-01-07T02:33:26;101075.84;;;-4.91;58.19
79006;BME280;69202;45.498;-73.582;2024-01-07T02:35:52;101075.59;;;-4.87;58.32
79006;BME280;69202;45.498;-73.582;2024-01-07T02:38:18;101051.97;;;-4.88;58.02
79006;BME280;69202;45.498;-73.582;2024-01-07T02:40:44;101065.44;;;-4.79;58.18
79006;BME280;69202;45.498;-73.582;2024-01-07T02:43:10;101071.47;;;-4.77;57.79
79006;BME280;69202;45.498;-73.582;2024-01-07T02:45:36;101045.56;;;-4.84;57.82
79006;BME280;69202;45.498;-73.582;2024-01-07T02:48:03;101029.94;;;-4.87;57.82
79006;BME280;69202;45.498;-73.582;2024-01-07T02:50:29;101051.75;;;-4.71;57.86
79006;BME280;69202;45.498;-73.582;2024-01-07T02:52:55;101047.25;;;-4.69;57.77
79006;BME280;69202;45.498;-73.582;2024-01-07T02:55:21;101047.16;;;-4.68;57.84
79006;BME280;69202;45.498;-73.582;2024-01-07T02:57:47;101046.31;;;-4.68;57.76
79006;BME280;69202;45.498;-73.582;2024-01-07T03:00:13;101041.06;;;-4.68;57.65
79006;BME280;69202;45.498;-73.582;2024-01-07T03:02:39;101036.53;;;-4.66;57.55
79006;BME280;69202;45.498;-73.582;2024-01-07T03:05:05;101017.97;;;-4.79;58.00
79006;BME280;69202;45.498;-73.582;2024-01-07T03:07:31;101043.50;;;-4.65;57.76
79006;BME280;69202;45.498;-73.582;2024-01-07T03:09:57;101038.75;;;-4.60;58.44
79006;BME280;69202;45.498;-73.582;2024-01-07T03:12:23;101030.31;;;-4.65;57.16
79006;BME280;69202;45.498;-73.582;2024-01-07T03:14:49;101035.78;;;-4.68;57.67
79006;BME280;69202;45.498;-73.582;2024-01-07T03:17:14;101022.50;;;-4.67;57.59
79006;BME280;69202;45.498;-73.582;2024-01-07T03:19:42;101021.66;;;-4.67;57.63
79006;BME280;69202;45.498;-73.582;2024-01-07T03:22:08;101014.56;;;-4.67;58.04
79006;BME280;69202;45.498;-73.582;2024-01-07T03:24:34;101022.66;;;-4.70;57.68
79006;BME280;69202;45.498;-73.582;2024-01-07T03:27:00;101003.00;;;-4.78;57.81
79006;BME280;69202;45.498;-73.582;2024-01-07T03:29:26;100992.34;;;-4.77;57.92
79006;BME280;69202;45.498;-73.582;2024-01-07T03:31:52;100991.78;;;-4.68;58.00
79006;BME280;69202;45.498;-73.582;2024-01-07T03:34:19;100980.28;;;-4.67;57.89
79006;BME280;69202;45.498;-73.582;2024-01-07T03:36:45;100985.34;;;-4.63;57.78
79006;BME280;69202;45.498;-73.582;2024-01-07T03:39:11;100978.41;;;-4.65;57.86
79006;BME280;69202;45.498;-73.582;2024-01-07T03:41:37;100961.34;;;-4.73;57.98
79006;BME280;69202;45.498;-73.582;2024-01-07T03:44:03;100958.72;;;-4.73;57.82
79006;BME280;69202;45.498;-73.582;2024-01-07T03:46:29;100962.47;;;-4.63;57.87
79006;BME280;69202;45.498;-73.582;2024-01-07T03:48:55;100953.44;;;-4.73;58.18
79006;BME280;69202;45.498;-73.582;2024-01-07T03:51:21;100949.56;;;-4.68;57.80
79006;BME280;69202;45.498;-73.582;2024-01-07T03:53:47;100949.28;;;-4.63;58.02
79006;BME280;69202;45.498;-73.582;2024-01-07T03:56:13;100937.25;;;-4.67;58.07
79006;BME280;69202;45.498;-73.582;2024-01-07T03:58:39;100929.03;;;-4.62;58.32
79006;BME280;69202;45.498;-73.582;2024-01-07T04:01:05;100920.25;;;-4.63;58.44
79006;BME280;69202;45.498;-73.582;2024-01-07T04:03:30;100916.41;;;-4.57;58.23
79006;BME280;69202;45.498;-73.582;2024-01-07T04:05:56;100910.91;;;-4.54;58.00
79006;BME280;69202;45.498;-73.582;2024-01-07T04:08:22;100909.50;;;-4.46;57.65
79006;BME280;69202;45.498;-73.582;2024-01-07T04:10:49;100913.91;;;-4.46;57.73
79006;BME280;69202;45.498;-73.582;2024-01-07T04:13:15;100893.00;;;-4.49;57.09
79006;BME280;69202;45.498;-73.582;2024-01-07T04:15:40;100904.38;;;-4.49;57.53
79006;BME280;69202;45.498;-73.582;2024-01-07T04:18:06;100912.97;;;-4.45;57.57
79006;BME280;69202;45.498;-73.582;2024-01-07T04:20:32;100871.19;;;-4.66;57.42
79006;BME280;69202;45.498;-73.582;2024-01-07T04:22:58;100902.69;;;-4.50;57.33
79006;BME280;69202;45.498;-73.582;2024-01-07T04:25:24;100906.28;;;-4.51;57.04
79006;BME280;69202;45.498;-73.582;2024-01-07T04:27:50;100891.41;;;-4.52;57.47
79006;BME280;69202;45.498;-73.582;2024-01-07T04:30:16;100867.13;;;-4.57;57.91
79006;BME280;69202;45.498;-73.582;2024-01-07T04:32:42;100864.06;;;-4.51;57.86
79006;BME280;69202;45.498;-73.582;2024-01-07T04:35:08;100862.16;;;-4.49;57.86
79006;BME280;69202;45.498;-73.582;2024-01-07T04:37:35;100857.00;;;-4.50;57.80
79006;BME280;69202;45.498;-73.582;2024-01-07T04:40:01;100797.72;;;-4.72;57.88
79006;BME280;69202;45.498;-73.582;2024-01-07T04:42:27;100837.59;;;-4.49;58.24
79006;BME280;69202;45.498;-73.582;2024-01-07T04:44:53;100836.47;;;-4.45;58.85
79006;BME280;69202;45.498;-73.582;2024-01-07T04:47:30;100843.09;;;-4.40;58.83
79006;BME280;69202;45.498;-73.582;2024-01-07T04:49:56;100828.03;;;-4.38;58.71
79006;BME280;69202;45.498;-73.582;2024-01-07T04:52:23;100826.31;;;-4.39;58.48
79006;BME280;69202;45.498;-73.582;2024-01-07T04:54:52;100823.06;;;-4.42;58.44
79006;BME280;69202;45.498;-73.582;2024-01-07T04:57:19;100813.84;;;-4.49;58.70
79006;BME280;69202;45.498;-73.582;2024-01-07T04:59:45;100805.28;;;-4.53;58.84
79006;BME280;69202;45.498;-73.582;2024-01-07T05:02:12;100807.63;;;-4.48;59.25
79006;BME280;69202;45.498;-73.582;2024-01-07T05:04:38;100813.56;;;-4.45;59.38
79006;BME280;69202;45.498;-73.582;2024-01-07T05:07:05;100818.00;;;-4.45;58.89
79006;BME280;69202;45.498;-73.582;2024-01-07T05:09:32;100817.16;;;-4.46;58.86
79006;BME280;69202;45.498;-73.582;2024-01-07T05:11:58;100806.59;;;-4.46;59.23
79006;BME280;69202;45.498;-73.582;2024-01-07T05:14:24;100764.75;;;-4.65;59.09
79006;BME280;69202;45.498;-73.582;2024-01-07T05:16:50;100797.53;;;-4.29;59.00
79006;BME280;69202;45.498;-73.582;2024-01-07T05:19:16;100808.84;;;-4.27;59.18
79006;BME280;69202;45.498;-73.582;2024-01-07T05:21:42;100802.63;;;-4.26;59.03
79006;BME280;69202;45.498;-73.582;2024-01-07T05:24:08;100810.53;;;-4.26;58.87
79006;BME280;69202;45.498;-73.582;2024-01-07T05:26:42;100787.94;;;-4.30;59.17
79006;BME280;69202;45.498;-73.582;2024-01-07T05:29:09;100781.81;;;-4.30;58.97
79006;BME280;69202;45.498;-73.582;2024-01-07T05:31:35;100773.88;;;-4.30;59.22
79006;BME280;69202;45.498;-73.582;2024-01-07T05:34:01;100784.22;;;-4.27;59.46
79006;BME280;69202;45.498;-73.582;2024-01-07T05:36:27;100783.84;;;-4.21;59.15
79006;BME280;69202;45.498;-73.582;2024-01-07T05:38:53;100779.84;;;-4.14;59.39
79006;BME280;69202;45.498;-73.582;2024-01-07T05:41:18;100789.44;;;-4.13;58.88
79006;BME280;69202;45.498;-73.582;2024-01-07T05:43:44;100744.34;;;-4.36;59.33
79006;BME280;69202;45.498;-73.582;2024-01-07T05:46:10;100756.06;;;-4.27;59.46
79006;BME280;69202;45.498;-73.582;2024-01-07T05:48:43;100775.06;;;-4.09;59.46
79006;BME280;69202;45.498;-73.582;2024-01-07T05:51:10;100755.88;;;-4.11;59.27
79006;BME280;69202;45.498;-73.582;2024-01-07T05:53:36;100760.63;;;-4.03;59.34
79006;BME280;69202;45.498;-73.582;2024-01-07T05:56:02;100748.50;;;-4.06;59.46
79006;BME280;69202;45.498;-73.582;2024-01-07T05:58:29;100751.88;;;-4.04;59.39
79006;BME280;69202;45.498;-73.582;2024-01-07T06:00:55;100755.13;;;-4.00;59.40
79006;BME280;69202;45.498;-73.582;2024-01-07T06:03:21;100744.47;;;-3.99;59.70
79006;BME280;69202;45.498;-73.582;2024-01-07T06:05:48;100752.19;;;-3.96;59.61
79006;BME280;69202;45.498;-73.582;2024-01-07T06:08:14;100750.69;;;-4.00;59.73
79006;BME280;69202;45.498;-73.582;2024-01-07T06:10:40;100757.53;;;-3.97;59.67
79006;BME280;69202;45.498;-73.582;2024-01-07T06:13:06;100751.31;;;-3.96;59.59
79006;BME280;69202;45.498;-73.582;2024-01-07T06:15:32;100750.91;;;-3.90;60.15
79006;BME280;69202;45.498;-73.582;2024-01-07T06:17:58;100736.13;;;-3.93;60.27
79006;BME280;69202;45.498;-73.582;2024-01-07T06:20:25;100731.16;;;-3.97;60.23
79006;BME280;69202;45.498;-73.582;2024-01-07T06:22:51;100733.25;;;-3.90;60.36
79006;BME280;69202;45.498;-73.582;2024-01-07T06:25:16;100735.69;;;-3.87;60.28
79006;BME280;69202;45.498;-73.582;2024-01-07T06:27:43;100719.94;;;-3.88;60.27
79006;BME280;69202;45.498;-73.582;2024-01-07T06:30:09;100699.47;;;-3.85;60.18
79006;BME280;69202;45.498;-73.582;2024-01-07T06:32:35;100709.59;;;-3.79;60.05
79006;BME280;69202;45.498;-73.582;2024-01-07T06:35:01;100703.56;;;-3.81;60.15
79006;BME280;69202;45.498;-73.582;2024-01-07T06:37:28;100696.16;;;-3.75;60.09
79006;BME280;69202;45.498;-73.582;2024-01-07T06:39:58;100702.94;;;-3.71;59.99
79006;BME280;69202;45.498;-73.582;2024-01-07T06:42:24;100698.47;;;-3.71;59.86
79006;BME280;69202;45.498;-73.582;2024-01-07T06:44:50;100693.31;;;-3.72;59.98
79006;BME280;69202;45.498;-73.582;2024-01-07T06:47:16;100695.22;;;-3.74;60.15
79006;BME280;69202;45.498;-73.582;2024-01-07T06:49:42;100681.69;;;-3.70;59.90
79006;BME280;69202;45.498;-73.582;2024-01-07T06:52:09;100684.31;;;-3.70;60.21
79006;BME280;69202;45.498;-73.582;2024-01-07T06:54:36;100690.34;;;-3.68;60.31
79006;BME280;69202;45.498;-73.582;2024-01-07T06:57:02;100665.63;;;-3.80;60.80
79006;BME280;69202;45.498;-73.582;2024-01-07T06:59:28;100682.81;;;-3.61;60.43
79006;BME280;69202;45.498;-73.582;2024-01-07T07:01:53;100680.78;;;-3.58;60.57
79006;BME280;69202;45.498;-73.582;2024-01-07T07:04:22;100665.28;;;-3.62;60.75
79006;BME280;69202;45.498;-73.582;2024-01-07T07:06:48;100669.06;;;-3.54;60.57
79006;BME280;69202;45.498;-73.582;2024-01-07T07:09:14;100669.56;;;-3.49;60.58
79006;BME280;69202;45.498;-73.582;2024-01-07T07:11:41;100664.06;;;-3.45;60.65
79006;BME280;69202;45.498;-73.582;2024-01-07T07:14:07;100645.34;;;-3.42;60.50
79006;BME280;69202;45.498;-73.582;2024-01-07T07:16:33;100644.16;;;-3.38;60.56
79006;BME280;69202;45.498;-73.582;2024-01-07T07:18:59;100637.69;;;-3.34;60.49
79006;BME280;69202;45.498;-73.582;2024-01-07T07:21:24;100630.50;;;-3.32;60.12
79006;BME280;69202;45.498;-73.582;2024-01-07T07:23:52;100635.56;;;-3.29;60.17
79006;BME280;69202;45.498;-73.582;2024-01-07T07:26:19;100624.16;;;-3.30;60.47
79006;BME280;69202;45.498;-73.582;2024-01-07T07:28:49;100631.84;;;-3.27;60.32
79006;BME280;69202;45.498;-73.582;2024-01-07T07:31:16;100624.16;;;-3.30;60.59
79006;BME280;69202;45.498;-73.582;2024-01-07T07:33:42;100625.59;;;-3.26;60.52
79006;BME280;69202;45.498;-73.582;2024-01-07T07:36:09;100626.44;;;-3.25;60.67
79006;BME280;69202;45.498;-73.582;2024-01-07T07:38:35;100585.00;;;-3.49;60.31
79006;BME280;69202;45.498;-73.582;2024-01-07T07:41:01;100621.38;;;-3.28;60.40
79006;BME280;69202;45.498;-73.582;2024-01-07T07:43:27;100615.16;;;-3.27;60.66
79006;BME280;69202;45.498;-73.582;2024-01-07T07:45:55;100616.81;;;-3.26;60.64
79006;BME280;69202;45.498;-73.582;2024-01-07T07:48:22;100618.50;;;-3.25;60.70
79006;BME280;69202;45.498;-73.582;2024-01-07T07:50:48;100618.78;;;-3.17;61.13
79006;BME280;69202;45.498;-73.582;2024-01-07T07:53:15;100613.25;;;-3.14;60.66
79006;BME280;69202;45.498;-73.582;2024-01-07T07:55:41;100604.38;;;-3.13;61.13
79006;BME280;69202;45.498;-73.582;2024-01-07T07:58:06;100611.13;;;-3.09;60.70
79006;BME280;69202;45.498;-73.582;2024-01-07T08:00:34;100603.94;;;-3.07;60.50
79006;BME280;69202;45.498;-73.582;2024-01-07T08:03:00;100592.03;;;-3.12;60.34
79006;BME280;69202;45.498;-73.582;2024-01-07T08:05:26;100594.31;;;-3.08;60.29
79006;BME280;69202;45.498;-73.582;2024-01-07T08:07:52;100598.19;;;-3.01;60.23
79006;BME280;69202;45.498;-73.582;2024-01-07T08:10:19;100608.00;;;-3.03;59.90
79006;BME280;69202;45.498;-73.582;2024-01-07T08:12:47;100593.78;;;-3.13;60.24
79006;BME280;69202;45.498;-73.582;2024-01-07T08:15:13;100602.84;;;-3.04;59.97
79006;BME280;69202;45.498;-73.582;2024-01-07T08:17:38;100589.97;;;-3.09;59.69
79006;BME280;69202;45.498;-73.582;2024-01-07T08:20:05;100583.72;;;-3.08;60.32
79006;BME280;69202;45.498;-73.582;2024-01-07T08:22:33;100580.56;;;-3.13;60.13
79006;BME280;69202;45.498;-73.582;2024-01-07T08:24:58;100581.22;;;-3.09;59.97
79006;BME280;69202;45.498;-73.582;2024-01-07T08:27:25;100584.81;;;-3.10;59.85
79006;BME280;69202;45.498;-73.582;2024-01-07T08:29:52;100574.44;;;-3.13;59.96
79006;BME280;69202;45.498;-73.582;2024-01-07T08:32:18;100579.97;;;-3.16;59.96
79006;BME280;69202;45.498;-73.582;2024-01-07T08:34:44;100572.88;;;-3.16;60.24
79006;BME280;69202;45.498;-73.582;2024-01-07T08:37:10;100537.03;;;-3.31;59.93
79006;BME280;69202;45.498;-73.582;2024-01-07T08:39:36;100571.59;;;-3.10;60.40
79006;BME280;69202;45.498;-73.582;2024-01-07T08:42:02;100561.03;;;-3.10;59.80
79006;BME280;69202;45.498;-73.582;2024-01-07T08:44:29;100557.03;;;-3.16;59.89
79006;BME280;69202;45.498;-73.582;2024-01-07T08:46:55;100534.63;;;-3.23;59.95
79006;BME280;69202;45.498;-73.582;2024-01-07T08:49:21;100546.69;;;-3.19;60.00
79006;BME280;69202;45.498;-73.582;2024-01-07T08:51:47;100548.50;;;-3.20;60.13
79006;BME280;69202;45.498;-73.582;2024-01-07T08:54:13;100538.97;;;-3.33;59.96
79006;BME280;69202;45.498;-73.582;2024-01-07T08:56:39;100546.16;;;-3.24;60.00
79006;BME280;69202;45.498;-73.582;2024-01-07T08:59:05;100529.13;;;-3.31;60.01
79006;BME280;69202;45.498;-73.582;2024-01-07T09:01:31;100526.72;;;-3.23;60.55
79006;BME280;69202;45.498;-73.582;2024-01-07T09:03:57;100538.75;;;-3.19;60.27
79006;BME280;69202;45.498;-73.582;2024-01-07T09:06:22;100537.78;;;-3.18;60.54
79006;BME280;69202;45.498;-73.582;2024-01-07T09:08:48;100514.38;;;-3.23;60.26
79006;BME280;69202;45.498;-73.582;2024-01-07T09:11:14;100495.81;;;-3.34;60.20
79006;BME280;69202;45.498;-73.582;2024-01-07T09:13:41;100514.13;;;-3.20;60.38
79006;BME280;69202;45.498;-73.582;2024-01-07T09:16:08;100506.06;;;-3.18;60.18
79006;BME280;69202;45.498;-73.582;2024-01-07T09:18:36;100509.56;;;-3.17;60.23
79006;BME280;69202;45.498;-73.582;2024-01-07T09:21:02;100490.06;;;-3.28;60.49
79006;BME280;69202;45.498;-73.582;2024-01-07T09:23:28;100498.50;;;-3.23;60.79
79006;BME280;69202;45.498;-73.582;2024-01-07T09:25:55;100498.13;;;-3.18;60.52
79006;BME280;69202;45.498;-73.582;2024-01-07T09:28:21;100480.59;;;-3.19;60.38
79006;BME280;69202;45.498;-73.582;2024-01-07T09:30:47;100486.72;;;-3.18;60.48
79006;BME280;69202;45.498;-73.582;2024-01-07T09:33:13;100493.44;;;-3.14;60.99
79006;BME280;69202;45.498;-73.582;2024-01-07T09:35:41;100491.75;;;-3.15;60.09
79006;BME280;69202;45.498;-73.582;2024-01-07T09:38:09;100495.50;;;-3.07;60.30
79006;BME280;69202;45.498;-73.582;2024-01-07T09:40:35;100486.63;;;-3.06;59.96
79006;BME280;69202;45.498;-73.582;2024-01-07T09:43:01;100487.09;;;-3.12;59.78
79006;BME280;69202;45.498;-73.582;2024-01-07T09:45:28;100491.44;;;-3.11;59.86
79006;BME280;69202;45.498;-73.582;2024-01-07T09:47:55;100497.44;;;-3.09;60.27
79006;BME280;69202;45.498;-73.582;2024-01-07T09:50:22;100481.91;;;-3.13;60.35
79006;BME280;69202;45.498;-73.582;2024-01-07T09:52:48;100486.63;;;-3.06;60.42
79006;BME280;69202;45.498;-73.582;2024-01-07T09:55:26;100484.69;;;-3.04;60.57
79006;BME280;69202;45.498;-73.582;2024-01-07T09:57:55;100471.13;;;-3.10;60.47
79006;BME280;69202;45.498;-73.582;2024-01-07T10:00:20;100483.50;;;-3.00;60.04
79006;BME280;69202;45.498;-73.582;2024-01-07T10:02:46;100476.28;;;-2.98;60.32
79006;BME280;69202;45.498;-73.582;2024-01-07T10:05:12;100481.47;;;-2.96;60.24
79006;BME280;69202;45.498;-73.582;2024-01-07T10:07:38;100479.78;;;-2.97;60.37
79006;BME280;69202;45.498;-73.582;2024-01-07T10:12:39;100467.66;;;-3.00;60.32
79006;BME280;69202;45.498;-73.582;2024-01-07T10:15:05;100463.53;;;-2.93;60.17
79006;BME280;69202;45.498;-73.582;2024-01-07T10:17:31;100456.44;;;-2.92;60.08
79006;BME280;69202;45.498;-73.582;2024-01-07T10:19:57;100455.41;;;-2.89;59.92
79006;BME280;69202;45.498;-73.582;2024-01-07T10:22:23;100449.38;;;-2.92;60.08
79006;BME280;69202;45.498;-73.582;2024-01-07T10:24:51;100451.41;;;-2.84;60.22
79006;BME280;69202;45.498;-73.582;2024-01-07T10:27:17;100454.19;;;-2.85;59.76
79006;BME280;69202;45.498;-73.582;2024-01-07T10:29:43;100449.00;;;-2.87;59.77
79006;BME280;69202;45.498;-73.582;2024-01-07T10:32:15;100433.84;;;-2.96;59.90
79006;BME280;69202;45.498;-73.582;2024-01-07T10:34:45;100445.41;;;-2.86;59.79
79006;BME280;69202;45.498;-73.582;2024-01-07T10:37:12;100436.25;;;-2.93;59.84
79006;BME280;69202;45.498;-73.582;2024-01-07T10:39:38;100441.31;;;-2.90;59.92
79006;BME280;69202;45.498;-73.582;2024-01-07T10:42:05;100443.13;;;-2.91;60.26
79006;BME280;69202;45.498;-73.582;2024-01-07T10:44:32;100427.34;;;-2.92;59.68
79006;BME280;69202;45.498;-73.582;2024-01-07T10:46:58;100445.41;;;-2.86;60.29
79006;BME280;69202;45.498;-73.582;2024-01-07T10:49:26;100438.44;;;-2.87;59.94
79006;BME280;69202;45.498;-73.582;2024-01-07T10:54:29;100437.84;;;-2.91;60.22
79006;BME280;69202;45.498;-73.582;2024-01-07T10:56:58;100428.09;;;-2.90;60.37
79006;BME280;69202;45.498;-73.582;2024-01-07T10:59:24;100445.53;;;-2.87;60.56
79006;BME280;69202;45.498;-73.582;2024-01-07T11:01:52;100437.34;;;-2.84;60.62
79006;BME280;69202;45.498;-73.582;2024-01-07T11:04:23;100437.47;;;-2.86;60.29
79006;BME280;69202;45.498;-73.582;2024-01-07T11:07:12;100433.72;;;-2.83;59.99
79006;BME280;69202;45.498;-73.582;2024-01-07T11:10:00;100431.09;;;-2.83;60.45
79006;BME280;69202;45.498;-73.582;2024-01-07T11:12:31;100435.19;;;-2.79;60.54
79006;BME280;69202;45.498;-73.582;2024-01-07T11:14:57;100435.78;;;-2.76;60.08
79006;BME280;69202;45.498;-73.582;2024-01-07T11:17:40;100434.69;;;-2.73;59.85
79006;BME280;69202;45.498;-73.582;2024-01-07T11:20:16;100432.28;;;-2.76;59.92
79006;BME280;69202;45.498;-73.582;2024-01-07T11:22:43;100434.94;;;-2.76;59.78
79006;BME280;69202;45.498;-73.582;2024-01-07T11:25:31;100425.31;;;-2.77;59.70
79006;BME280;69202;45.498;-73.582;2024-01-07T11:27:58;100424.34;;;-2.76;59.57
79006;BME280;69202;45.498;-73.582;2024-01-07T11:30:26;100419.19;;;-2.78;59.55
79006;BME280;69202;45.498;-73.582;2024-01-07T11:33:00;100423.97;;;-2.72;59.47
79006;BME280;69202;45.498;-73.582;2024-01-07T11:38:19;100393.84;;;-2.92;59.82
79006;BME280;69202;45.498;-73.582;2024-01-07T11:40:47;100403.91;;;-2.85;59.72
79006;BME280;69202;45.498;-73.582;2024-01-07T11:43:14;100402.47;;;-2.78;59.78
79006;BME280;69202;45.498;-73.582;2024-01-07T11:45:40;100397.53;;;-2.83;59.86
79006;BME280;69202;45.498;-73.582;2024-01-07T11:48:07;100391.78;;;-2.77;59.99
79006;BME280;69202;45.498;-73.582;2024-01-07T11:50:32;100387.19;;;-2.75;59.58
79006;BME280;69202;45.498;-73.582;2024-01-07T11:52:58;100387.44;;;-2.78;59.86
79006;BME280;69202;45.498;-73.582;2024-01-07T11:55:25;100387.44;;;-2.78;60.09
79006;BME280;69202;45.498;-73.582;2024-01-07T11:57:51;100375.41;;;-2.82;60.26
79006;BME280;69202;45.498;-73.582;2024-01-07T12:00:18;100376.75;;;-2.76;59.93
79006;BME280;69202;45.498;-73.582;2024-01-07T12:02:45;100370.63;;;-2.77;59.68
79006;BME280;69202;45.498;-73.582;2024-01-07T12:05:12;100373.72;;;-2.72;59.97
79006;BME280;69202;45.498;-73.582;2024-01-07T12:07:41;100373.72;;;-2.72;60.03
79006;BME280;69202;45.498;-73.582;2024-01-07T12:10:08;100333.09;;;-2.93;60.05
79006;BME280;69202;45.498;-73.582;2024-01-07T12:12:39;100368.31;;;-2.81;60.48
79006;BME280;69202;45.498;-73.582;2024-01-07T12:15:07;100346.25;;;-2.92;60.26
79006;BME280;69202;45.498;-73.582;2024-01-07T12:17:33;100381.19;;;-2.77;60.66
79006;BME280;69202;45.498;-73.582;2024-01-07T12:20:00;100377.72;;;-2.77;60.64
79006;BME280;69202;45.498;-73.582;2024-01-07T12:22:29;100363.78;;;-2.79;60.80
79006;BME280;69202;45.498;-73.582;2024-01-07T12:25:05;100372.66;;;-2.69;60.38
79006;BME280;69202;45.498;-73.582;2024-01-07T12:27:33;100364.59;;;-2.68;60.50
79006;BME280;69202;45.498;-73.582;2024-01-07T12:30:00;100376.13;;;-2.69;60.30
79006;BME280;69202;45.498;-73.582;2024-01-07T12:32:26;100376.13;;;-2.69;60.23
79006;BME280;69202;45.498;-73.582;2024-01-07T12:34:52;100372.66;;;-2.69;60.14
79006;BME280;69202;45.498;-73.582;2024-01-07T12:37:19;100365.56;;;-2.69;60.48